sensor_id;sensor_type;location;lat;lon;timestamp;temperature;humidity
41882;DHT22;27562;47.524;12.404;2022-08-20T00:01:46;15.60;99.90
41882;DHT22;27562;47.524;12.404;2022-08-20T00:04:13;15.60;99.90
41882;DHT22;27562;47.524;12.404;2022-08-20T00:06:39;15.60;99.90
41882;DHT22;27562;47.524;12.404;2022-08-20T00:09:05;15.60;99.90
41882;DHT22;27562;47.524;12.404;2022-08-20T00:11:32;15.50;99.90
41882;DHT22;27562;47.524;12.404;2022-08-20T00:14:00;15.50;99.90
41882;DHT22;27562;47.524;12.404;2022-08-20T00:16:31;15.50;99.90
41882;DHT22;27562;47.524;12.404;2022-08-20T00:19:01;15.50;99.90
41882;DHT22;27562;47.524;12.404;2022-08-20T00:21:28;15.40;99.90
41882;DHT22;27562;47.524;12.404;2022-08-20T00:23:54;15.40;99.90
41882;DHT22;27562;47.524;12.404;2022-08-20T00:26:21;15.40;99.90
41882;DHT22;27562;47.524;12.404;2022-08-20T00:28:47;15.40;99.90
41882;DHT22;27562;47.524;12.404;2022-08-20T00:31:16;15.40;99.90
41882;DHT22;27562;47.524;12.404;2022-08-20T00:33:45;15.40;99.90
41882;DHT22;27562;47.524;12.404;2022-08-20T00:36:12;15.40;99.90
41882;DHT22;27562;47.524;12.404;2022-08-20T00:38:41;15.30;99.90
41882;DHT22;27562;47.524;12.404;2022-08-20T00:41:10;15.40;99.90
41882;DHT22;27562;47.524;12.404;2022-08-20T00:43:38;15.30;99.90
41882;DHT22;27562;47.524;12.404;2022-08-20T00:46:11;15.30;99.90
41882;DHT22;27562;47.524;12.404;2022-08-20T00:48:42;15.30;99.90
41882;DHT22;27562;47.524;12.404;2022-08-20T00:51:17;15.30;99.90
41882;DHT22;27562;47.524;12.404;2022-08-20T00:53:45;15.30;99.90
41882;DHT22;27562;47.524;12.404;2022-08-20T00:56:12;15.30;99.90
41882;DHT22;27562;47.524;12.404;2022-08-20T00:58:39;15.30;99.90
41882;DHT22;27562;47.524;12.404;2022-08-20T01:01:07;15.30;99.90
41882;DHT22;27562;47.524;12.404;2022-08-20T01:03:33;15.30;99.90
41882;DHT22;27562;47.524;12.404;2022-08-20T01:06:00;15.30;99.90
41882;DHT22;27562;47.524;12.404;2022-08-20T01:08:25;15.30;99.90
41882;DHT22;27562;47.524;12.404;2022-08-20T01:10:53;15.30;99.90
41882;DHT22;27562;47.524;12.404;2022-08-20T01:13:33;15.40;99.90
41882;DHT22;27562;47.524;12.404;2022-08-20T01:16:01;15.40;99.90
41882;DHT22;27562;47.524;12.404;2022-08-20T01:18:29;15.40;99.90
41882;DHT22;27562;47.524;12.404;2022-08-20T01:20:59;15.40;99.90
41882;DHT22;27562;47.524;12.404;2022-08-20T01:23:38;15.40;99.90
41882;DHT22;27562;47.524;12.404;2022-08-20T01:26:39;15.40;99.90
41882;DHT22;27562;47.524;12.404;2022-08-20T01:29:19;15.40;99.90
41882;DHT22;27562;47.524;12.404;2022-08-20T01:31:46;15.40;99.90
41882;DHT22;27562;47.524;12.404;2022-08-20T01:34:15;15.40;99.90
41882;DHT22;27562;47.524;12.404;2022-08-20T01:36:50;15.40;99.90
41882;DHT22;27562;47.524;12.404;2022-08-20T01:39:20;15.40;99.90
41882;DHT22;27562;47.524;12.404;2022-08-20T01:42:39;15.40;99.90
41882;DHT22;27562;47.524;12.404;2022-08-20T01:44:57;15.30;99.90
41882;DHT22;27562;47.524;12.404;2022-08-20T01:47:29;15.30;99.90
41882;DHT22;27562;47.524;12.404;2022-08-20T01:50:03;15.30;99.90
41882;DHT22;27562;47.524;12.404;2022-08-20T01:52:44;15.30;99.90
41882;DHT22;27562;47.524;12.404;2022-08-20T01:55:10;15.20;99.90
41882;DHT22;27562;47.524;12.404;2022-08-20T01:57:38;15.20;99.90
41882;DHT22;27562;47.524;12.404;2022-08-20T02:00:10;15.20;99.90
41882;DHT22;27562;47.524;12.404;2022-08-20T02:02:37;15.20;99.90
41882;DHT22;27562;47.524;12.404;2022-08-20T02:05:03;15.20;99.90
41882;DHT22;27562;47.524;12.404;2022-08-20T02:07:29;15.20;99.90
41882;DHT22;27562;47.524;12.404;2022-08-20T02:09:57;15.20;99.90
41882;DHT22;27562;47.524;12.404;2022-08-20T02:12:23;15.10;99.90
41882;DHT22;27562;47.524;12.404;2022-08-20T02:14:52;15.10;99.90
41882;DHT22;27562;47.524;12.404;2022-08-20T02:17:21;15.10;99.90
41882;DHT22;27562;47.524;12.404;2022-08-20T02:19:59;15.10;99.90
41882;DHT22;27562;47.524;12.404;2022-08-20T02:23:08;15.10;99.90
41882;DHT22;27562;47.524;12.404;2022-08-20T02:25:28;15.10;99.90
41882;DHT22;27562;47.524;12.404;2022-08-20T02:27:56;15.00;99.90
41882;DHT22;27562;47.524;12.404;2022-08-20T02:30:31;15.00;99.90
41882;DHT22;27562;47.524;12.404;2022-08-20T02:33:03;15.00;99.90
41882;DHT22;27562;47.524;12.404;2022-08-20T02:35:29;15.00;99.90
41882;DHT22;27562;47.524;12.404;2022-08-20T02:37:55;15.00;99.90
41882;DHT22;27562;47.524;12.404;2022-08-20T02:40:23;15.00;99.90
41882;DHT22;27562;47.524;12.404;2022-08-20T02:42:51;15.00;99.90
41882;DHT22;27562;47.524;12.404;2022-08-20T02:45:18;14.90;99.90
41882;DHT22;27562;47.524;12.404;2022-08-20T02:47:45;15.00;99.90
41882;DHT22;27562;47.524;12.404;2022-08-20T02:50:14;14.90;99.90
41882;DHT22;27562;47.524;12.404;2022-08-20T02:52:40;14.90;99.90
41882;DHT22;27562;47.524;12.404;2022-08-20T02:55:07;14.90;99.90
41882;DHT22;27562;47.524;12.404;2022-08-20T02:57:33;14.90;99.90
41882;DHT22;27562;47.524;12.404;2022-08-20T02:59:58;14.90;99.90
41882;DHT22;27562;47.524;12.404;2022-08-20T03:02:24;14.90;99.90
41882;DHT22;27562;47.524;12.404;2022-08-20T03:04:50;14.90;99.90
41882;DHT22;27562;47.524;12.404;2022-08-20T03:07:16;14.90;99.90
41882;DHT22;27562;47.524;12.404;2022-08-20T03:09:42;14.90;99.90
41882;DHT22;27562;47.524;12.404;2022-08-20T03:12:08;14.90;99.90
41882;DHT22;27562;47.524;12.404;2022-08-20T03:14:34;14.90;99.90
41882;DHT22;27562;47.524;12.404;2022-08-20T03:17:01;14.90;99.90
41882;DHT22;27562;47.524;12.404;2022-08-20T03:19:27;14.90;99.90
41882;DHT22;27562;47.524;12.404;2022-08-20T03:21:52;14.80;99.90
41882;DHT22;27562;47.524;12.404;2022-08-20T03:24:18;14.80;99.90
41882;DHT22;27562;47.524;12.404;2022-08-20T03:26:44;14.80;99.90
41882;DHT22;27562;47.524;12.404;2022-08-20T03:29:10;14.80;99.90
41882;DHT22;27562;47.524;12.404;2022-08-20T03:31:36;14.70;99.90
41882;DHT22;27562;47.524;12.404;2022-08-20T03:34:02;14.70;99.90
41882;DHT22;27562;47.524;12.404;2022-08-20T03:36:28;14.70;99.90
41882;DHT22;27562;47.524;12.404;2022-08-20T03:38:55;14.70;99.90
41882;DHT22;27562;47.524;12.404;2022-08-20T03:41:21;14.70;99.90
41882;DHT22;27562;47.524;12.404;2022-08-20T03:43:48;14.70;99.90
41882;DHT22;27562;47.524;12.404;2022-08-20T03:46:14;14.70;99.90
41882;DHT22;27562;47.524;12.404;2022-08-20T03:48:40;14.70;99.90
41882;DHT22;27562;47.524;12.404;2022-08-20T03:51:06;14.80;99.90
41882;DHT22;27562;47.524;12.404;2022-08-20T03:53:32;14.80;99.90
41882;DHT22;27562;47.524;12.404;2022-08-20T03:55:59;14.80;99.90
41882;DHT22;27562;47.524;12.404;2022-08-20T03:58:30;14.80;99.90
41882;DHT22;27562;47.524;12.404;2022-08-20T04:00:56;14.80;99.90
41882;DHT22;27562;47.524;12.404;2022-08-20T04:03:22;14.90;99.90
41882;DHT22;27562;47.524;12.404;2022-08-20T04:05:49;14.90;99.90
41882;DHT22;27562;47.524;12.404;2022-08-20T04:08:19;14.80;99.90
41882;DHT22;27562;47.524;12.404;2022-08-20T04:10:47;14.80;99.90
41882;DHT22;27562;47.524;12.404;2022-08-20T04:13:14;14.80;99.90
41882;DHT22;27562;47.524;12.404;2022-08-20T04:15:40;14.80;99.90
41882;DHT22;27562;47.524;12.404;2022-08-20T04:18:07;14.80;99.90
41882;DHT22;27562;47.524;12.404;2022-08-20T04:20:35;14.80;99.90
41882;DHT22;27562;47.524;12.404;2022-08-20T04:23:02;14.80;99.90
41882;DHT22;27562;47.524;12.404;2022-08-20T04:25:30;14.80;99.90
41882;DHT22;27562;47.524;12.404;2022-08-20T04:28:01;14.80;99.90
41882;DHT22;27562;47.524;12.404;2022-08-20T04:30:28;14.80;99.90
41882;DHT22;27562;47.524;12.404;2022-08-20T04:32:54;14.80;99.90
41882;DHT22;27562;47.524;12.404;2022-08-20T04:35:21;14.80;99.90
41882;DHT22;27562;47.524;12.404;2022-08-20T04:37:49;14.80;99.90
41882;DHT22;27562;47.524;12.404;2022-08-20T04:40:21;14.80;99.90
41882;DHT22;27562;47.524;12.404;2022-08-20T04:43:05;14.80;99.90
41882;DHT22;27562;47.524;12.404;2022-08-20T04:45:32;14.80;99.90
41882;DHT22;27562;47.524;12.404;2022-08-20T04:48:01;14.90;99.90
41882;DHT22;27562;47.524;12.404;2022-08-20T04:50:31;14.90;99.90
41882;DHT22;27562;47.524;12.404;2022-08-20T04:53:01;14.90;99.90
41882;DHT22;27562;47.524;12.404;2022-08-20T04:55:27;14.90;99.90
41882;DHT22;27562;47.524;12.404;2022-08-20T04:57:54;14.80;99.90
41882;DHT22;27562;47.524;12.404;2022-08-20T05:00:22;14.80;99.90
41882;DHT22;27562;47.524;12.404;2022-08-20T05:02:48;14.80;99.90
41882;DHT22;27562;47.524;12.404;2022-08-20T05:05:14;14.80;99.90
41882;DHT22;27562;47.524;12.404;2022-08-20T05:07:44;14.80;99.90
41882;DHT22;27562;47.524;12.404;2022-08-20T05:10:15;14.90;99.90
41882;DHT22;27562;47.524;12.404;2022-08-20T05:12:41;14.90;99.90
41882;DHT22;27562;47.524;12.404;2022-08-20T05:15:09;14.90;99.90
41882;DHT22;27562;47.524;12.404;2022-08-20T05:17:41;14.90;99.90
41882;DHT22;27562;47.524;12.404;2022-08-20T05:20:16;14.90;99.90
41882;DHT22;27562;47.524;12.404;2022-08-20T05:22:42;14.90;99.90
41882;DHT22;27562;47.524;12.404;2022-08-20T05:25:08;14.90;99.90
41882;DHT22;27562;47.524;12.404;2022-08-20T05:27:34;14.90;99.90
41882;DHT22;27562;47.524;12.404;2022-08-20T05:30:06;14.90;99.90
41882;DHT22;27562;47.524;12.404;2022-08-20T05:32:32;14.90;99.90
41882;DHT22;27562;47.524;12.404;2022-08-20T05:35:00;15.00;99.90
41882;DHT22;27562;47.524;12.404;2022-08-20T05:37:26;15.00;99.90
41882;DHT22;27562;47.524;12.404;2022-08-20T05:39:52;15.10;99.90
41882;DHT22;27562;47.524;12.404;2022-08-20T05:42:18;15.10;99.90
41882;DHT22;27562;47.524;12.404;2022-08-20T05:44:43;15.10;99.90
41882;DHT22;27562;47.524;12.404;2022-08-20T05:47:11;15.10;99.90
41882;DHT22;27562;47.524;12.404;2022-08-20T05:49:37;15.10;99.90
41882;DHT22;27562;47.524;12.404;2022-08-20T05:52:03;15.10;99.90
41882;DHT22;27562;47.524;12.404;2022-08-20T05:54:30;15.20;99.90
41882;DHT22;27562;47.524;12.404;2022-08-20T05:56:56;15.20;99.90
41882;DHT22;27562;47.524;12.404;2022-08-20T05:59:25;15.20;99.90
41882;DHT22;27562;47.524;12.404;2022-08-20T06:01:51;15.30;99.90
41882;DHT22;27562;47.524;12.404;2022-08-20T06:04:17;15.30;99.90
41882;DHT22;27562;47.524;12.404;2022-08-20T06:06:50;15.40;99.90
41882;DHT22;27562;47.524;12.404;2022-08-20T06:09:19;15.40;99.90
41882;DHT22;27562;47.524;12.404;2022-08-20T06:11:45;15.40;99.90
41882;DHT22;27562;47.524;12.404;2022-08-20T06:14:11;15.40;99.90
41882;DHT22;27562;47.524;12.404;2022-08-20T06:16:37;15.50;99.90
41882;DHT22;27562;47.524;12.404;2022-08-20T06:19:04;15.40;99.90
41882;DHT22;27562;47.524;12.404;2022-08-20T06:21:30;15.40;99.90
41882;DHT22;27562;47.524;12.404;2022-08-20T06:23:55;15.40;99.90
41882;DHT22;27562;47.524;12.404;2022-08-20T06:26:21;15.40;99.90
41882;DHT22;27562;47.524;12.404;2022-08-20T06:28:48;15.40;99.90
41882;DHT22;27562;47.524;12.404;2022-08-20T06:31:13;15.40;99.90
41882;DHT22;27562;47.524;12.404;2022-08-20T06:33:39;15.40;99.90
41882;DHT22;27562;47.524;12.404;2022-08-20T06:36:05;15.40;99.90
41882;DHT22;27562;47.524;12.404;2022-08-20T06:38:31;15.50;99.90
41882;DHT22;27562;47.524;12.404;2022-08-20T06:40:57;15.50;99.90
41882;DHT22;27562;47.524;12.404;2022-08-20T06:43:23;15.50;99.90
41882;DHT22;27562;47.524;12.404;2022-08-20T06:45:50;15.50;99.90
41882;DHT22;27562;47.524;12.404;2022-08-20T06:48:16;15.60;99.90
41882;DHT22;27562;47.524;12.404;2022-08-20T06:50:45;15.60;99.90
41882;DHT22;27562;47.524;12.404;2022-08-20T06:53:15;15.60;99.90
41882;DHT22;27562;47.524;12.404;2022-08-20T06:55:43;15.60;99.90
41882;DHT22;27562;47.524;12.404;2022-08-20T06:58:11;15.60;99.90
41882;DHT22;27562;47.524;12.404;2022-08-20T07:00:38;15.60;99.90
41882;DHT22;27562;47.524;12.404;2022-08-20T07:03:05;15.60;99.90
41882;DHT22;27562;47.524;12.404;2022-08-20T07:05:36;15.70;99.90
41882;DHT22;27562;47.524;12.404;2022-08-20T07:08:03;15.70;99.90
41882;DHT22;27562;47.524;12.404;2022-08-20T07:10:29;15.70;99.90
41882;DHT22;27562;47.524;12.404;2022-08-20T07:12:55;15.70;99.90
41882;DHT22;27562;47.524;12.404;2022-08-20T07:15:22;15.70;99.90
41882;DHT22;27562;47.524;12.404;2022-08-20T07:17:52;15.80;99.90
41882;DHT22;27562;47.524;12.404;2022-08-20T07:20:19;15.80;99.90
41882;DHT22;27562;47.524;12.404;2022-08-20T07:22:45;15.80;99.90
41882;DHT22;27562;47.524;12.404;2022-08-20T07:25:13;15.80;99.90
41882;DHT22;27562;47.524;12.404;2022-08-20T07:27:40;15.80;99.90
41882;DHT22;27562;47.524;12.404;2022-08-20T07:30:09;15.80;99.90
41882;DHT22;27562;47.524;12.404;2022-08-20T07:32:54;15.80;99.90
41882;DHT22;27562;47.524;12.404;2022-08-20T07:35:19;15.80;99.90
41882;DHT22;27562;47.524;12.404;2022-08-20T07:37:48;15.80;99.90
41882;DHT22;27562;47.524;12.404;2022-08-20T07:40:27;15.80;99.90
41882;DHT22;27562;47.524;12.404;2022-08-20T07:42:54;15.80;99.90
41882;DHT22;27562;47.524;12.404;2022-08-20T07:45:20;15.90;99.90
41882;DHT22;27562;47.524;12.404;2022-08-20T07:47:46;15.90;99.90
41882;DHT22;27562;47.524;12.404;2022-08-20T07:50:15;15.90;99.90
41882;DHT22;27562;47.524;12.404;2022-08-20T07:52:41;15.90;99.90
41882;DHT22;27562;47.524;12.404;2022-08-20T07:55:09;15.90;99.90
41882;DHT22;27562;47.524;12.404;2022-08-20T07:57:37;15.90;99.90
41882;DHT22;27562;47.524;12.404;2022-08-20T08:00:04;15.90;99.90
41882;DHT22;27562;47.524;12.404;2022-08-20T08:02:32;15.90;99.90
41882;DHT22;27562;47.524;12.404;2022-08-20T08:04:58;15.90;99.90
41882;DHT22;27562;47.524;12.404;2022-08-20T08:07:25;16.00;99.90
41882;DHT22;27562;47.524;12.404;2022-08-20T08:09:51;15.90;99.90
41882;DHT22;27562;47.524;12.404;2022-08-20T08:12:17;15.90;99.90
41882;DHT22;27562;47.524;12.404;2022-08-20T08:14:45;15.90;99.90
41882;DHT22;27562;47.524;12.404;2022-08-20T08:17:11;15.90;99.90
41882;DHT22;27562;47.524;12.404;2022-08-20T08:19:40;15.90;99.90
41882;DHT22;27562;47.524;12.404;2022-08-20T08:22:10;15.90;99.90
41882;DHT22;27562;47.524;12.404;2022-08-20T08:24:37;15.90;99.90
41882;DHT22;27562;47.524;12.404;2022-08-20T08:27:03;15.90;99.90
41882;DHT22;27562;47.524;12.404;2022-08-20T08:29:29;15.90;99.90
41882;DHT22;27562;47.524;12.404;2022-08-20T08:31:55;16.00;99.90
41882;DHT22;27562;47.524;12.404;2022-08-20T08:34:21;16.10;99.90
41882;DHT22;27562;47.524;12.404;2022-08-20T08:36:51;16.10;99.90
41882;DHT22;27562;47.524;12.404;2022-08-20T08:39:17;16.10;99.90
41882;DHT22;27562;47.524;12.404;2022-08-20T08:41:46;16.20;99.90
41882;DHT22;27562;47.524;12.404;2022-08-20T08:44:17;16.20;99.90
41882;DHT22;27562;47.524;12.404;2022-08-20T08:46:52;16.20;99.90
41882;DHT22;27562;47.524;12.404;2022-08-20T08:49:24;16.20;99.90
41882;DHT22;27562;47.524;12.404;2022-08-20T08:51:59;16.20;99.90
41882;DHT22;27562;47.524;12.404;2022-08-20T08:54:29;16.20;99.90
41882;DHT22;27562;47.524;12.404;2022-08-20T08:56:56;16.20;99.90
41882;DHT22;27562;47.524;12.404;2022-08-20T08:59:22;16.20;99.90
41882;DHT22;27562;47.524;12.404;2022-08-20T09:01:52;16.20;99.90
41882;DHT22;27562;47.524;12.404;2022-08-20T09:04:19;16.10;99.90
41882;DHT22;27562;47.524;12.404;2022-08-20T09:06:50;16.20;99.90
41882;DHT22;27562;47.524;12.404;2022-08-20T09:09:32;16.20;99.90
41882;DHT22;27562;47.524;12.404;2022-08-20T09:12:05;16.20;99.90
41882;DHT22;27562;47.524;12.404;2022-08-20T09:14:31;16.20;99.90
41882;DHT22;27562;47.524;12.404;2022-08-20T09:16:57;16.30;99.90
41882;DHT22;27562;47.524;12.404;2022-08-20T09:19:23;16.30;99.90
41882;DHT22;27562;47.524;12.404;2022-08-20T09:21:48;16.30;99.90
41882;DHT22;27562;47.524;12.404;2022-08-20T09:24:14;16.30;99.90
41882;DHT22;27562;47.524;12.404;2022-08-20T09:26:40;16.30;99.90
41882;DHT22;27562;47.524;12.404;2022-08-20T09:29:06;16.30;99.90
41882;DHT22;27562;47.524;12.404;2022-08-20T09:31:32;16.30;99.90
41882;DHT22;27562;47.524;12.404;2022-08-20T09:33:57;16.20;99.90
41882;DHT22;27562;47.524;12.404;2022-08-20T09:36:23;16.20;99.90
41882;DHT22;27562;47.524;12.404;2022-08-20T09:38:49;16.20;99.90
41882;DHT22;27562;47.524;12.404;2022-08-20T09:41:14;16.20;99.90
41882;DHT22;27562;47.524;12.404;2022-08-20T09:43:40;16.10;99.90
41882;DHT22;27562;47.524;12.404;2022-08-20T09:46:06;16.10;99.90
41882;DHT22;27562;47.524;12.404;2022-08-20T09:48:31;16.20;99.90
41882;DHT22;27562;47.524;12.404;2022-08-20T09:50:57;16.20;99.90
41882;DHT22;27562;47.524;12.404;2022-08-20T09:53:23;16.30;99.90
41882;DHT22;27562;47.524;12.404;2022-08-20T09:55:52;16.40;99.90
41882;DHT22;27562;47.524;12.404;2022-08-20T10:00:55;16.40;99.90
41882;DHT22;27562;47.524;12.404;2022-08-20T10:03:21;16.60;99.90
41882;DHT22;27562;47.524;12.404;2022-08-20T10:05:46;16.70;99.90
41882;DHT22;27562;47.524;12.404;2022-08-20T10:08:12;16.80;99.90
41882;DHT22;27562;47.524;12.404;2022-08-20T10:10:38;16.80;99.90
41882;DHT22;27562;47.524;12.404;2022-08-20T10:13:04;16.90;99.90
41882;DHT22;27562;47.524;12.404;2022-08-20T10:15:30;17.00;99.90
41882;DHT22;27562;47.524;12.404;2022-08-20T10:17:56;17.00;99.90
41882;DHT22;27562;47.524;12.404;2022-08-20T10:20:23;17.00;99.90
41882;DHT22;27562;47.524;12.404;2022-08-20T10:22:49;17.10;99.90
41882;DHT22;27562;47.524;12.404;2022-08-20T10:25:15;17.10;99.90
41882;DHT22;27562;47.524;12.404;2022-08-20T10:27:42;17.10;99.90
41882;DHT22;27562;47.524;12.404;2022-08-20T10:30:09;17.10;99.90
41882;DHT22;27562;47.524;12.404;2022-08-20T10:32:34;17.10;99.90
41882;DHT22;27562;47.524;12.404;2022-08-20T10:35:00;17.20;99.90
41882;DHT22;27562;47.524;12.404;2022-08-20T10:37:26;17.20;99.90
41882;DHT22;27562;47.524;12.404;2022-08-20T10:39:53;17.10;99.90
41882;DHT22;27562;47.524;12.404;2022-08-20T10:42:18;17.10;99.90
41882;DHT22;27562;47.524;12.404;2022-08-20T10:44:44;17.00;99.90
41882;DHT22;27562;47.524;12.404;2022-08-20T10:47:23;17.00;99.90
41882;DHT22;27562;47.524;12.404;2022-08-20T10:49:51;17.00;99.90
41882;DHT22;27562;47.524;12.404;2022-08-20T10:52:17;17.00;99.90
41882;DHT22;27562;47.524;12.404;2022-08-20T10:54:43;17.00;99.90
41882;DHT22;27562;47.524;12.404;2022-08-20T10:57:19;17.00;99.90
41882;DHT22;27562;47.524;12.404;2022-08-20T10:59:47;16.90;99.90
41882;DHT22;27562;47.524;12.404;2022-08-20T11:02:14;16.90;99.90
41882;DHT22;27562;47.524;12.404;2022-08-20T11:04:40;16.90;99.90
41882;DHT22;27562;47.524;12.404;2022-08-20T11:09:50;17.00;99.90
41882;DHT22;27562;47.524;12.404;2022-08-20T11:12:18;17.00;99.90
41882;DHT22;27562;47.524;12.404;2022-08-20T11:14:45;17.00;99.90
41882;DHT22;27562;47.524;12.404;2022-08-20T11:17:11;17.00;99.90
41882;DHT22;27562;47.524;12.404;2022-08-20T11:19:39;17.00;99.90
41882;DHT22;27562;47.524;12.404;2022-08-20T11:22:05;17.00;99.90
41882;DHT22;27562;47.524;12.404;2022-08-20T11:24:31;17.00;99.90
41882;DHT22;27562;47.524;12.404;2022-08-20T11:26:57;17.00;99.90
41882;DHT22;27562;47.524;12.404;2022-08-20T11:29:22;17.00;99.90
41882;DHT22;27562;47.524;12.404;2022-08-20T11:31:49;16.90;99.90
41882;DHT22;27562;47.524;12.404;2022-08-20T11:34:15;16.90;99.90
41882;DHT22;27562;47.524;12.404;2022-08-20T11:36:41;16.90;99.90
41882;DHT22;27562;47.524;12.404;2022-08-20T11:39:07;16.90;99.90
41882;DHT22;27562;47.524;12.404;2022-08-20T11:41:33;16.90;99.90
41882;DHT22;27562;47.524;12.404;2022-08-20T11:43:59;16.90;99.90
41882;DHT22;27562;47.524;12.404;2022-08-20T11:46:24;17.00;99.90
41882;DHT22;27562;47.524;12.404;2022-08-20T11:48:50;17.00;99.90
41882;DHT22;27562;47.524;12.404;2022-08-20T11:51:16;17.00;99.90
41882;DHT22;27562;47.524;12.404;2022-08-20T11:53:41;17.00;99.90
41882;DHT22;27562;47.524;12.404;2022-08-20T11:56:07;17.00;99.90
41882;DHT22;27562;47.524;12.404;2022-08-20T11:58:33;16.90;99.90
41882;DHT22;27562;47.524;12.404;2022-08-20T12:00:59;16.90;99.90
41882;DHT22;27562;47.524;12.404;2022-08-20T12:03:24;16.90;99.90
41882;DHT22;27562;47.524;12.404;2022-08-20T12:05:50;16.90;99.90
41882;DHT22;27562;47.524;12.404;2022-08-20T12:08:16;17.00;99.90
41882;DHT22;27562;47.524;12.404;2022-08-20T12:10:42;17.00;99.90
41882;DHT22;27562;47.524;12.404;2022-08-20T12:13:08;17.20;99.90
41882;DHT22;27562;47.524;12.404;2022-08-20T12:15:34;17.20;99.90
41882;DHT22;27562;47.524;12.404;2022-08-20T12:18:05;17.40;99.90
41882;DHT22;27562;47.524;12.404;2022-08-20T12:20:31;17.50;99.90
41882;DHT22;27562;47.524;12.404;2022-08-20T12:22:57;17.60;99.90
41882;DHT22;27562;47.524;12.404;2022-08-20T12:25:23;17.70;99.90
41882;DHT22;27562;47.524;12.404;2022-08-20T12:27:50;17.80;99.90
41882;DHT22;27562;47.524;12.404;2022-08-20T12:30:18;17.80;99.90
41882;DHT22;27562;47.524;12.404;2022-08-20T12:32:45;17.80;99.90
41882;DHT22;27562;47.524;12.404;2022-08-20T12:35:13;17.90;99.90
41882;DHT22;27562;47.524;12.404;2022-08-20T12:37:40;17.90;99.90
41882;DHT22;27562;47.524;12.404;2022-08-20T12:40:10;17.90;99.90
41882;DHT22;27562;47.524;12.404;2022-08-20T12:42:36;17.90;99.90
41882;DHT22;27562;47.524;12.404;2022-08-20T12:45:02;17.90;99.90
41882;DHT22;27562;47.524;12.404;2022-08-20T12:47:37;18.00;99.90
41882;DHT22;27562;47.524;12.404;2022-08-20T12:50:11;18.10;99.90
41882;DHT22;27562;47.524;12.404;2022-08-20T12:52:38;18.10;99.90
41882;DHT22;27562;47.524;12.404;2022-08-20T12:55:05;18.10;99.90
41882;DHT22;27562;47.524;12.404;2022-08-20T12:57:33;18.20;99.90
41882;DHT22;27562;47.524;12.404;2022-08-20T13:00:05;18.20;99.90
41882;DHT22;27562;47.524;12.404;2022-08-20T13:02:31;18.20;99.90
41882;DHT22;27562;47.524;12.404;2022-08-20T13:04:57;18.20;99.90
41882;DHT22;27562;47.524;12.404;2022-08-20T13:07:23;18.20;99.90
41882;DHT22;27562;47.524;12.404;2022-08-20T13:09:48;18.10;99.90
41882;DHT22;27562;47.524;12.404;2022-08-20T13:12:14;18.00;99.90
41882;DHT22;27562;47.524;12.404;2022-08-20T13:14:40;18.00;99.90
41882;DHT22;27562;47.524;12.404;2022-08-20T13:17:06;17.90;99.90
41882;DHT22;27562;47.524;12.404;2022-08-20T13:19:34;17.80;99.90
41882;DHT22;27562;47.524;12.404;2022-08-20T13:22:00;17.80;99.90
41882;DHT22;27562;47.524;12.404;2022-08-20T13:24:26;17.80;99.90
41882;DHT22;27562;47.524;12.404;2022-08-20T13:26:52;17.80;99.90
41882;DHT22;27562;47.524;12.404;2022-08-20T13:29:19;17.80;99.90
41882;DHT22;27562;47.524;12.404;2022-08-20T13:31:44;17.80;99.90
41882;DHT22;27562;47.524;12.404;2022-08-20T13:34:11;17.80;99.90
41882;DHT22;27562;47.524;12.404;2022-08-20T13:36:37;17.80;99.90
41882;DHT22;27562;47.524;12.404;2022-08-20T13:39:04;17.70;99.90
41882;DHT22;27562;47.524;12.404;2022-08-20T13:41:31;17.70;99.90
41882;DHT22;27562;47.524;12.404;2022-08-20T13:43:56;17.60;99.90
41882;DHT22;27562;47.524;12.404;2022-08-20T13:46:22;17.50;99.90
41882;DHT22;27562;47.524;12.404;2022-08-20T13:48:48;17.40;99.90
41882;DHT22;27562;47.524;12.404;2022-08-20T13:51:14;17.40;99.90
41882;DHT22;27562;47.524;12.404;2022-08-20T13:53:40;17.40;99.90
41882;DHT22;27562;47.524;12.404;2022-08-20T13:56:05;17.40;99.90
41882;DHT22;27562;47.524;12.404;2022-08-20T13:58:31;17.40;99.90
41882;DHT22;27562;47.524;12.404;2022-08-20T14:00:57;17.40;99.90
41882;DHT22;27562;47.524;12.404;2022-08-20T14:03:23;17.50;99.90
41882;DHT22;27562;47.524;12.404;2022-08-20T14:05:48;17.50;99.90
41882;DHT22;27562;47.524;12.404;2022-08-20T14:08:17;17.50;99.90
41882;DHT22;27562;47.524;12.404;2022-08-20T14:10:45;17.50;99.90
41882;DHT22;27562;47.524;12.404;2022-08-20T14:13:15;17.60;99.90
41882;DHT22;27562;47.524;12.404;2022-08-20T14:15:42;17.70;99.90
41882;DHT22;27562;47.524;12.404;2022-08-20T14:18:08;17.70;99.90
41882;DHT22;27562;47.524;12.404;2022-08-20T14:20:34;17.80;99.90
41882;DHT22;27562;47.524;12.404;2022-08-20T14:23:00;17.80;99.90
41882;DHT22;27562;47.524;12.404;2022-08-20T14:25:28;17.80;99.90
41882;DHT22;27562;47.524;12.404;2022-08-20T14:27:55;17.70;99.90
41882;DHT22;27562;47.524;12.404;2022-08-20T14:30:28;17.70;99.90
41882;DHT22;27562;47.524;12.404;2022-08-20T14:32:55;17.60;99.90
41882;DHT22;27562;47.524;12.404;2022-08-20T14:35:21;17.60;99.90
41882;DHT22;27562;47.524;12.404;2022-08-20T14:37:50;17.50;99.90
41882;DHT22;27562;47.524;12.404;2022-08-20T14:40:22;17.50;99.90
41882;DHT22;27562;47.524;12.404;2022-08-20T14:42:49;17.40;99.90
41882;DHT22;27562;47.524;12.404;2022-08-20T14:45:15;17.40;99.90
41882;DHT22;27562;47.524;12.404;2022-08-20T14:47:44;17.40;99.90
41882;DHT22;27562;47.524;12.404;2022-08-20T14:50:16;17.40;99.90
41882;DHT22;27562;47.524;12.404;2022-08-20T14:52:42;17.40;99.90
41882;DHT22;27562;47.524;12.404;2022-08-20T14:55:14;17.40;99.90
41882;DHT22;27562;47.524;12.404;2022-08-20T14:57:41;17.30;99.90
41882;DHT22;27562;47.524;12.404;2022-08-20T15:00:10;17.30;99.90
41882;DHT22;27562;47.524;12.404;2022-08-20T15:02:37;17.30;99.90
41882;DHT22;27562;47.524;12.404;2022-08-20T15:05:05;17.30;99.90
41882;DHT22;27562;47.524;12.404;2022-08-20T15:07:33;17.20;99.90
41882;DHT22;27562;47.524;12.404;2022-08-20T15:10:00;17.20;99.90
41882;DHT22;27562;47.524;12.404;2022-08-20T15:12:27;17.20;99.90
41882;DHT22;27562;47.524;12.404;2022-08-20T15:14:53;17.10;99.90
41882;DHT22;27562;47.524;12.404;2022-08-20T15:17:21;17.10;99.90
41882;DHT22;27562;47.524;12.404;2022-08-20T15:19:48;17.00;99.90
41882;DHT22;27562;47.524;12.404;2022-08-20T15:22:14;17.00;99.90
41882;DHT22;27562;47.524;12.404;2022-08-20T15:24:40;17.00;99.90